createdAt,value
2019-03-21T00:02:02.299Z,90.20
2019-03-21T00:04:32.796Z,90.30
2019-03-21T00:07:03.247Z,90.40
2019-03-21T00:09:33.752Z,90.60
2019-03-21T00:12:11.454Z,90.80
2019-03-21T00:14:58.445Z,90.60
2019-03-21T00:17:39.275Z,90.60
2019-03-21T00:20:13.813Z,91.30
2019-03-21T00:22:44.303Z,91.60
2019-03-21T00:25:23.326Z,91.70
2019-03-21T00:27:53.822Z,91.60
2019-03-21T00:30:26.718Z,91.10
2019-03-21T00:32:58.009Z,91.00
2019-03-21T00:35:28.507Z,91.00
2019-03-21T00:37:58.971Z,91.10
2019-03-21T00:40:36.679Z,91.40
2019-03-21T00:43:11.139Z,91.70
2019-03-21T00:45:41.609Z,91.90
2019-03-21T00:48:16.271Z,92.20
2019-03-21T00:50:46.737Z,92.30
2019-03-21T00:53:17.297Z,92.20
2019-03-21T00:55:51.938Z,92.10
2019-03-21T00:58:22.435Z,92.00
2019-03-21T01:01:02.660Z,91.60
2019-03-21T01:03:33.146Z,91.50
2019-03-21T01:06:03.596Z,91.80
2019-03-21T01:08:34.104Z,92.10
2019-03-21T01:11:04.586Z,92.10
2019-03-21T01:13:38.751Z,92.20
2019-03-21T01:16:09.369Z,92.30
2019-03-21T01:18:46.367Z,92.30
2019-03-21T01:21:16.849Z,92.00
2019-03-21T01:23:47.305Z,91.80
2019-03-21T01:26:17.801Z,92.00
2019-03-21T01:28:48.253Z,92.20
2019-03-21T01:31:18.739Z,92.40
2019-03-21T01:33:49.191Z,92.40
2019-03-21T01:36:22.706Z,92.40
2019-03-21T01:38:53.159Z,92.50
2019-03-21T01:41:23.678Z,92.60
2019-03-21T01:43:54.131Z,92.70
2019-03-21T01:46:28.578Z,92.80
2019-03-21T01:48:59.038Z,92.80
2019-03-21T01:51:29.603Z,93.00
2019-03-21T01:54:00.066Z,93.20
2019-03-21T01:56:31.759Z,93.30
2019-03-21T01:59:02.242Z,93.40
2019-03-21T02:01:32.867Z,93.50
2019-03-21T02:04:03.351Z,93.50
2019-03-21T02:06:33.818Z,93.60
2019-03-21T02:09:08.338Z,93.70
2019-03-21T02:11:39.026Z,93.90
2019-03-21T02:14:09.520Z,94.00
2019-03-21T02:16:40.005Z,94.20
2019-03-21T02:19:10.498Z,94.30
2019-03-21T02:21:41.004Z,94.40
2019-03-21T02:24:11.477Z,94.60
2019-03-21T02:26:41.968Z,94.40
2019-03-21T02:29:12.441Z,94.30
2019-03-21T02:31:42.923Z,94.10
2019-03-21T02:34:13.374Z,93.80
2019-03-21T02:36:44.097Z,93.70
2019-03-21T02:39:14.626Z,93.90
2019-03-21T02:41:45.108Z,93.90
2019-03-21T02:44:15.571Z,94.10
2019-03-21T02:46:46.057Z,94.20
2019-03-21T02:49:16.524Z,94.40
2019-03-21T02:51:47.015Z,94.60
2019-03-21T02:54:17.497Z,94.70
2019-03-21T02:56:48.133Z,94.90
2019-03-21T02:59:18.641Z,95.30
2019-03-21T03:01:49.092Z,95.30
2019-03-21T03:04:19.578Z,95.00
2019-03-21T03:06:50.791Z,95.10
2019-03-21T03:09:21.273Z,95.10
2019-03-21T03:11:51.736Z,94.90
2019-03-21T03:14:22.228Z,95.10
2019-03-21T03:16:52.686Z,94.60
2019-03-21T03:19:23.170Z,94.70
2019-03-21T03:21:53.652Z,94.80
2019-03-21T03:24:25.208Z,95.00
2019-03-21T03:26:55.707Z,95.10
2019-03-21T03:29:26.163Z,95.10
2019-03-21T03:31:56.661Z,94.80
2019-03-21T03:34:27.125Z,94.40
2019-03-21T03:36:57.602Z,94.60
2019-03-21T03:39:28.166Z,94.80
2019-03-21T03:41:58.821Z,94.90
2019-03-21T03:44:29.277Z,95.00
2019-03-21T03:46:59.757Z,95.20
2019-03-21T03:49:30.212Z,95.20
2019-03-21T03:52:00.701Z,95.20
2019-03-21T03:54:31.234Z,95.20
2019-03-21T03:57:01.725Z,95.20
2019-03-21T03:59:32.182Z,95.20
2019-03-21T04:02:02.814Z,95.30
2019-03-21T04:04:33.294Z,95.50
2019-03-21T04:07:03.793Z,95.80
2019-03-21T04:09:34.335Z,95.80
2019-03-21T04:12:04.979Z,95.60
2019-03-21T04:14:35.450Z,95.50
2019-03-21T04:17:05.937Z,95.90
2019-03-21T04:19:36.400Z,95.70
2019-03-21T04:22:06.895Z,95.70
2019-03-21T04:24:37.356Z,95.70
2019-03-21T04:27:07.988Z,95.70
2019-03-21T04:29:38.474Z,95.70
2019-03-21T04:32:08.950Z,95.70
2019-03-21T04:34:39.450Z,95.80
2019-03-21T04:37:09.912Z,96.00
2019-03-21T04:39:40.489Z,96.00
2019-03-21T04:42:10.954Z,95.80
2019-03-21T04:44:41.433Z,95.80
2019-03-21T04:47:11.895Z,95.90
2019-03-21T04:49:42.391Z,95.90
2019-03-21T04:52:12.879Z,96.00
2019-03-21T04:54:43.339Z,96.30
2019-03-21T04:57:13.833Z,96.50
2019-03-21T04:59:44.299Z,96.50
2019-03-21T05:02:14.795Z,96.70
2019-03-21T05:04:45.266Z,96.40
2019-03-21T05:07:15.766Z,96.60
2019-03-21T05:09:46.267Z,96.80
2019-03-21T05:12:16.758Z,96.80
2019-03-21T05:14:47.247Z,96.70
2019-03-21T05:17:17.735Z,96.60
2019-03-21T05:19:48.202Z,96.70
2019-03-21T05:22:18.710Z,96.90
2019-03-21T05:24:49.199Z,97.00
2019-03-21T05:27:19.669Z,96.90
2019-03-21T05:29:50.152Z,97.00
2019-03-21T05:32:20.619Z,97.10
2019-03-21T05:34:51.113Z,97.10
2019-03-21T05:37:21.601Z,97.10
2019-03-21T05:39:52.087Z,97.10
2019-03-21T05:42:22.651Z,97.20
2019-03-21T05:44:53.151Z,97.10
2019-03-21T05:47:23.648Z,97.30
2019-03-21T05:49:54.107Z,97.40
2019-03-21T05:52:24.605Z,97.20
2019-03-21T05:54:55.141Z,97.40
2019-03-21T05:57:25.659Z,97.20
2019-03-21T05:59:56.127Z,97.20
2019-03-21T06:02:26.697Z,96.90
2019-03-21T06:04:57.163Z,96.70
2019-03-21T06:07:31.623Z,96.50
2019-03-21T06:10:02.078Z,96.40
2019-03-21T06:12:35.754Z,96.40
2019-03-21T06:15:10.865Z,96.00
2019-03-21T06:17:41.418Z,95.70
2019-03-21T06:20:49.879Z,95.40
2019-03-21T06:23:36.996Z,95.20
2019-03-21T06:26:34.724Z,95.30
2019-03-21T06:29:05.248Z,94.60
2019-03-21T06:31:35.732Z,94.50
2019-03-21T06:34:06.259Z,94.30
2019-03-21T06:36:36.759Z,94.10
2019-03-21T06:39:09.425Z,93.80
2019-03-21T06:41:39.907Z,93.40
2019-03-21T06:44:10.365Z,93.10
2019-03-21T06:46:49.004Z,93.20
2019-03-21T06:49:13.011Z,93.00
2019-03-21T06:51:43.525Z,92.90
2019-03-21T06:54:14.111Z,92.70
2019-03-21T06:56:44.553Z,92.50
2019-03-21T06:59:15.130Z,92.10
2019-03-21T07:01:45.656Z,92.00
2019-03-21T07:04:16.138Z,91.90
2019-03-21T07:06:46.672Z,91.10
2019-03-21T07:09:17.166Z,91.50
2019-03-21T07:11:47.664Z,91.50
2019-03-21T07:14:19.530Z,91.20
2019-03-21T07:17:00.018Z,90.70
2019-03-21T07:19:22.220Z,90.80
2019-03-21T07:21:52.703Z,90.40
2019-03-21T07:24:23.193Z,90.30
2019-03-21T07:26:53.668Z,90.00
2019-03-21T07:29:24.141Z,88.70
2019-03-21T07:31:54.614Z,89.10
2019-03-21T07:34:25.098Z,89.40
2019-03-21T07:36:55.550Z,89.70
2019-03-21T07:39:28.579Z,88.90
2019-03-21T07:42:00.907Z,89.10
2019-03-21T07:44:30.454Z,87.80
2019-03-21T07:47:11.705Z,86.60
2019-03-21T07:49:33.098Z,87.10
2019-03-21T07:52:03.665Z,84.00
2019-03-21T07:54:34.135Z,84.70
2019-03-21T07:57:04.640Z,85.40
2019-03-21T07:59:35.139Z,83.20
2019-03-21T08:02:05.660Z,78.50
2019-03-21T08:04:36.814Z,77.50
2019-03-21T08:07:07.312Z,79.10
2019-03-21T08:09:37.859Z,77.60
2019-03-21T08:12:08.330Z,79.40
2019-03-21T08:14:38.801Z,79.70
2019-03-21T08:17:09.296Z,80.30
2019-03-21T08:19:39.789Z,79.70
2019-03-21T08:22:10.308Z,77.60
2019-03-21T08:24:40.816Z,78.40
2019-03-21T08:27:11.349Z,80.80
2019-03-21T08:29:41.962Z,79.80
2019-03-21T08:32:19.687Z,76.60
2019-03-21T08:34:50.194Z,77.40
2019-03-21T08:37:20.652Z,76.00
2019-03-21T08:39:51.133Z,74.00
2019-03-21T08:42:21.592Z,75.60
2019-03-21T08:44:52.086Z,72.70
2019-03-21T08:47:22.568Z,68.90
2019-03-21T08:49:53.076Z,67.90
2019-03-21T08:52:23.508Z,65.60
2019-03-21T08:54:53.994Z,67.40
2019-03-21T08:57:24.453Z,66.50
2019-03-21T08:59:54.946Z,65.00
2019-03-21T09:02:25.410Z,64.70
2019-03-21T09:04:59.680Z,66.50
2019-03-21T09:07:29.762Z,65.30
2019-03-21T09:10:00.437Z,68.80
2019-03-21T09:12:31.015Z,64.60
2019-03-21T09:15:01.472Z,61.10
2019-03-21T09:17:31.961Z,59.00
2019-03-21T09:20:02.426Z,60.50
2019-03-21T09:22:32.906Z,58.40
2019-03-21T09:25:04.894Z,58.10
2019-03-21T09:27:35.591Z,56.70
2019-03-21T09:30:14.691Z,57.00
2019-03-21T09:32:45.236Z,55.20
2019-03-21T09:35:15.792Z,51.70
2019-03-21T09:37:46.249Z,49.60
2019-03-21T09:40:16.801Z,50.40
2019-03-21T09:42:47.252Z,49.40
2019-03-21T09:45:17.814Z,46.90
2019-03-21T09:47:48.273Z,46.60
2019-03-21T09:50:28.593Z,44.00
2019-03-21T09:52:59.065Z,43.90
2019-03-21T09:55:29.554Z,42.50
2019-03-21T09:58:00.014Z,42.60
2019-03-21T10:00:36.317Z,41.80
2019-03-21T10:03:07.144Z,42.90
2019-03-21T10:05:37.648Z,41.70
2019-03-21T10:08:08.181Z,40.60
2019-03-21T10:10:38.687Z,42.50
2019-03-21T10:13:09.150Z,41.00
2019-03-21T10:15:39.665Z,41.20
2019-03-21T10:18:10.171Z,40.00
2019-03-21T10:20:40.638Z,39.60
2019-03-21T10:23:11.159Z,40.20
2019-03-21T10:25:41.635Z,40.00
2019-03-21T10:28:12.136Z,39.00
2019-03-21T10:30:43.705Z,38.10
2019-03-21T10:33:14.819Z,36.30
2019-03-21T10:35:45.430Z,35.10
2019-03-21T10:38:15.938Z,35.40
2019-03-21T10:40:47.811Z,34.70
2019-03-21T10:43:18.296Z,33.90
2019-03-21T10:45:48.790Z,34.20
2019-03-21T10:48:19.258Z,34.40
2019-03-21T10:50:49.738Z,34.20
2019-03-21T10:53:20.201Z,34.80
2019-03-21T10:55:50.691Z,34.70
2019-03-21T10:58:21.148Z,32.40
2019-03-21T11:00:51.642Z,32.20
2019-03-21T11:03:22.099Z,32.00
2019-03-21T11:05:52.657Z,32.60
2019-03-21T11:08:24.371Z,30.50
2019-03-21T11:10:54.872Z,30.00
2019-03-21T11:13:25.338Z,28.90
2019-03-21T11:15:55.837Z,28.50
2019-03-21T11:18:35.720Z,28.80
2019-03-21T11:20:58.530Z,29.80
2019-03-21T11:23:29.041Z,29.00
2019-03-21T11:25:59.508Z,28.80
2019-03-21T11:28:30.002Z,27.80
2019-03-21T11:31:00.460Z,27.40
2019-03-21T11:33:30.953Z,27.10
2019-03-21T11:36:01.453Z,27.40
2019-03-21T11:38:31.931Z,27.80
2019-03-21T11:41:02.442Z,26.90
2019-03-21T11:43:32.925Z,27.20
2019-03-21T11:46:03.412Z,26.80
2019-03-21T11:48:33.884Z,26.50
2019-03-21T11:51:04.351Z,25.50
2019-03-21T11:53:34.924Z,26.50
2019-03-21T11:56:05.459Z,25.10
2019-03-21T11:58:36.019Z,25.00
2019-03-21T12:01:07.801Z,26.30
2019-03-21T12:03:38.301Z,27.10
2019-03-21T12:06:08.798Z,25.90
2019-03-21T12:08:39.250Z,24.60
2019-03-21T12:11:09.814Z,25.60
2019-03-21T12:13:40.371Z,25.30
2019-03-21T12:16:10.835Z,25.40
2019-03-21T12:18:41.329Z,25.20
2019-03-21T12:21:11.782Z,26.30
2019-03-21T12:23:42.298Z,26.40
2019-03-21T12:26:12.770Z,26.40
2019-03-21T12:28:45.558Z,26.40
2019-03-21T12:31:16.098Z,26.30
2019-03-21T12:33:46.614Z,26.00
2019-03-21T12:36:17.104Z,26.00
2019-03-21T12:38:47.626Z,25.10
2019-03-21T12:41:18.086Z,25.30
2019-03-21T12:43:49.136Z,25.30
2019-03-21T12:46:19.598Z,25.40
2019-03-21T12:48:50.094Z,25.10
2019-03-21T12:51:20.570Z,25.60
2019-03-21T12:53:51.062Z,25.10
2019-03-21T12:56:21.525Z,24.80
2019-03-21T12:58:52.021Z,24.80
2019-03-21T13:01:22.551Z,24.80
2019-03-21T13:03:53.041Z,24.20
2019-03-21T13:06:23.545Z,23.80
2019-03-21T13:08:54.000Z,23.20
2019-03-21T13:11:24.500Z,23.60
2019-03-21T13:13:54.990Z,22.90
2019-03-21T13:16:25.482Z,22.50
2019-03-21T13:18:55.986Z,22.90
2019-03-21T13:21:28.012Z,22.70
2019-03-21T13:23:58.500Z,23.50
2019-03-21T13:26:28.990Z,22.70
2019-03-21T13:28:59.447Z,22.70
2019-03-21T13:31:29.935Z,22.80
2019-03-21T13:34:00.429Z,23.40
2019-03-21T13:36:30.926Z,23.20
2019-03-21T13:39:01.410Z,22.90
2019-03-21T13:41:31.895Z,23.20
2019-03-21T13:44:02.356Z,23.60
2019-03-21T13:46:32.861Z,23.80
2019-03-21T13:49:05.818Z,23.50
2019-03-21T13:51:35.554Z,24.80
2019-03-21T13:54:08.648Z,24.50
2019-03-21T13:56:38.536Z,24.50
2019-03-21T13:59:09.947Z,23.90
2019-03-21T14:01:40.440Z,24.20
2019-03-21T14:04:10.908Z,24.00
2019-03-21T14:06:41.404Z,23.50
2019-03-21T14:09:11.863Z,23.20
2019-03-21T14:11:42.373Z,23.10
2019-03-21T14:14:12.829Z,23.10
2019-03-21T14:16:43.321Z,23.30
2019-03-21T14:19:13.812Z,23.20
2019-03-21T14:21:44.311Z,22.90
2019-03-21T14:24:14.791Z,23.00
2019-03-21T14:26:45.274Z,23.00
2019-03-21T14:29:15.768Z,22.40
2019-03-21T14:31:46.327Z,22.70
2019-03-21T14:34:16.796Z,22.50
2019-03-21T14:36:47.285Z,21.50
2019-03-21T14:39:17.794Z,22.20
2019-03-21T14:41:48.260Z,22.10
2019-03-21T14:44:18.752Z,22.50
2019-03-21T14:46:49.211Z,21.60
2019-03-21T14:49:19.695Z,21.20
2019-03-21T14:51:50.561Z,21.30
2019-03-21T14:54:21.047Z,21.90
2019-03-21T14:56:51.540Z,22.00
2019-03-21T14:59:23.727Z,22.20
2019-03-21T15:01:54.224Z,22.60
2019-03-21T15:04:24.689Z,22.30
2019-03-21T15:06:55.181Z,22.60
2019-03-21T15:09:26.875Z,23.00
2019-03-21T15:11:57.496Z,23.50
2019-03-21T15:14:31.932Z,23.80
2019-03-21T15:17:01.719Z,24.30
2019-03-21T15:19:32.212Z,24.20
2019-03-21T15:22:02.706Z,24.40
2019-03-21T15:24:33.171Z,24.50
2019-03-21T15:27:03.656Z,25.10
2019-03-21T15:29:35.461Z,25.20
2019-03-21T15:32:06.759Z,25.00
2019-03-21T15:34:37.249Z,25.50
2019-03-21T15:37:07.731Z,26.00
2019-03-21T15:39:38.221Z,26.60
2019-03-21T15:42:08.687Z,25.90
2019-03-21T15:44:39.176Z,25.70
2019-03-21T15:47:09.677Z,25.40
2019-03-21T15:49:41.710Z,25.60
2019-03-21T15:52:12.176Z,25.70
2019-03-21T15:54:42.687Z,25.80
2019-03-21T15:57:13.149Z,26.20
2019-03-21T15:59:43.631Z,25.70
2019-03-21T16:02:14.104Z,26.00
2019-03-21T16:04:44.594Z,25.80
2019-03-21T16:07:15.060Z,26.00
2019-03-21T16:09:45.558Z,26.30
2019-03-21T16:12:16.048Z,26.80
2019-03-21T16:14:49.154Z,27.50
2019-03-21T16:17:18.712Z,28.40
2019-03-21T16:19:49.172Z,29.50
2019-03-21T16:22:19.672Z,30.00
2019-03-21T16:24:50.180Z,30.90
2019-03-21T16:27:20.697Z,31.50
2019-03-21T16:29:51.157Z,32.40
2019-03-21T16:32:21.654Z,33.00
2019-03-21T16:34:52.161Z,33.80
2019-03-21T16:37:22.973Z,34.60
2019-03-21T16:39:53.458Z,35.20
2019-03-21T16:42:23.922Z,35.30
2019-03-21T16:44:56.357Z,36.10
2019-03-21T16:47:26.884Z,36.70
2019-03-21T16:49:57.347Z,37.00
2019-03-21T16:52:27.850Z,37.60
2019-03-21T16:54:58.303Z,37.80
2019-03-21T16:57:28.799Z,38.20
2019-03-21T16:59:59.286Z,38.40
2019-03-21T17:02:29.780Z,39.00
2019-03-21T17:05:00.510Z,39.50
2019-03-21T17:07:31.029Z,39.90
2019-03-21T17:10:02.584Z,40.30
2019-03-21T17:12:33.124Z,41.20
2019-03-21T17:15:05.326Z,42.40
2019-03-21T17:17:35.835Z,42.70
2019-03-21T17:20:09.039Z,43.70
2019-03-21T17:22:39.553Z,44.10
2019-03-21T17:25:11.544Z,44.60
2019-03-21T17:27:42.068Z,45.90
2019-03-21T17:30:15.456Z,47.20
2019-03-21T17:32:45.955Z,48.00
2019-03-21T17:35:16.599Z,48.70
2019-03-21T17:37:47.086Z,49.40
2019-03-21T17:40:18.098Z,49.90
2019-03-21T17:42:50.204Z,50.60
2019-03-21T17:45:20.860Z,50.90
2019-03-21T17:47:51.433Z,51.60
2019-03-21T17:50:22.307Z,52.50
2019-03-21T17:52:52.812Z,53.80
2019-03-21T17:55:23.316Z,54.40
2019-03-21T17:57:53.825Z,54.90
2019-03-21T18:00:35.474Z,55.70
2019-03-21T18:03:07.208Z,56.80
2019-03-21T18:05:37.709Z,58.20
2019-03-21T18:08:08.889Z,59.10
2019-03-21T18:10:39.446Z,59.90
2019-03-21T18:13:09.914Z,60.30
2019-03-21T18:15:40.423Z,62.30
2019-03-21T18:18:10.906Z,64.00
2019-03-21T18:20:41.512Z,64.80
2019-03-21T18:23:11.989Z,65.60
2019-03-21T18:25:42.573Z,66.70
2019-03-21T18:28:13.043Z,66.90
2019-03-21T18:30:43.560Z,67.50
2019-03-21T18:33:14.057Z,68.10
2019-03-21T18:35:44.637Z,69.20
2019-03-21T18:38:15.113Z,70.00
2019-03-21T18:40:45.622Z,69.90
2019-03-21T18:43:16.166Z,70.30
2019-03-21T18:45:46.820Z,71.20
2019-03-21T18:48:17.316Z,72.20
2019-03-21T18:50:47.802Z,73.30
2019-03-21T18:53:18.313Z,73.20
2019-03-21T18:55:48.888Z,75.40
2019-03-21T18:58:19.392Z,76.70
2019-03-21T19:00:49.927Z,79.00
2019-03-21T19:03:20.417Z,80.00
2019-03-21T19:05:50.900Z,79.10
2019-03-21T19:08:21.401Z,79.50
2019-03-21T19:10:53.510Z,79.10
2019-03-21T19:13:24.006Z,79.40
2019-03-21T19:15:54.475Z,79.70
2019-03-21T19:18:24.991Z,80.30
2019-03-21T19:20:56.211Z,81.10
2019-03-21T19:23:29.964Z,81.50
2019-03-21T19:26:00.449Z,82.20
2019-03-21T19:28:32.686Z,82.30
2019-03-21T19:31:03.132Z,82.20
2019-03-21T19:33:33.619Z,82.50
2019-03-21T19:36:04.229Z,83.00
2019-03-21T19:38:34.730Z,83.00
2019-03-21T19:41:06.541Z,83.40
2019-03-21T19:43:39.100Z,84.00
2019-03-21T19:46:09.560Z,85.90
2019-03-21T19:48:49.786Z,85.50
2019-03-21T19:51:12.313Z,85.10
2019-03-21T19:53:42.873Z,85.50
2019-03-21T19:56:13.362Z,85.60
2019-03-21T19:58:43.823Z,86.30
2019-03-21T20:01:14.330Z,86.60
2019-03-21T20:03:44.842Z,86.60
2019-03-21T20:06:15.320Z,87.30
2019-03-21T20:08:45.834Z,87.60
2019-03-21T20:11:16.378Z,88.00
2019-03-21T20:13:46.870Z,90.40
2019-03-21T20:16:17.340Z,90.00
2019-03-21T20:18:49.728Z,89.40
2019-03-21T20:21:20.220Z,89.80
2019-03-21T20:23:50.747Z,90.00
2019-03-21T20:26:22.510Z,90.00
2019-03-21T20:28:52.969Z,90.00
2019-03-21T20:31:23.477Z,90.00
2019-03-21T20:33:53.941Z,90.20
2019-03-21T20:36:24.435Z,90.40
2019-03-21T20:38:54.898Z,90.30
2019-03-21T20:41:25.407Z,90.50
2019-03-21T20:43:55.901Z,90.50
2019-03-21T20:46:26.380Z,90.60
2019-03-21T20:48:55.296Z,90.40
2019-03-21T20:51:25.756Z,90.80
2019-03-21T20:53:56.260Z,92.50
2019-03-21T20:56:26.721Z,91.10
2019-03-21T20:58:57.289Z,90.80
2019-03-21T21:01:27.777Z,90.80
2019-03-21T21:03:58.251Z,91.00
2019-03-21T21:06:28.741Z,91.20
2019-03-21T21:08:59.205Z,91.40
2019-03-21T21:11:29.697Z,91.30
2019-03-21T21:14:00.171Z,91.60
2019-03-21T21:16:30.670Z,91.70
2019-03-21T21:19:01.212Z,92.30
2019-03-21T21:21:31.715Z,92.00
2019-03-21T21:24:02.181Z,91.80
2019-03-21T21:26:32.677Z,91.40
2019-03-21T21:29:03.131Z,91.60
2019-03-21T21:31:33.620Z,91.80
2019-03-21T21:34:04.645Z,92.20
2019-03-21T21:36:37.943Z,92.70
2019-03-21T21:39:08.575Z,93.10
2019-03-21T21:41:39.061Z,93.50
2019-03-21T21:44:09.593Z,93.70
2019-03-21T21:46:40.086Z,93.60
2019-03-21T21:49:12.988Z,93.60
2019-03-21T21:51:42.738Z,93.90
2019-03-21T21:54:13.231Z,93.90
2019-03-21T21:56:45.422Z,93.60
2019-03-21T21:59:15.886Z,93.60
2019-03-21T22:01:47.531Z,93.60
2019-03-21T22:04:18.128Z,93.50
2019-03-21T22:06:48.633Z,93.50
2019-03-21T22:09:19.124Z,93.50
2019-03-21T22:11:49.601Z,93.70
2019-03-21T22:14:20.093Z,94.00
2019-03-21T22:16:50.588Z,94.30
2019-03-21T22:19:22.265Z,94.30
2019-03-21T22:21:52.754Z,94.40
2019-03-21T22:24:23.215Z,94.20
2019-03-21T22:26:53.709Z,94.10
2019-03-21T22:29:24.175Z,94.10
2019-03-21T22:31:54.658Z,94.10
2019-03-21T22:34:25.149Z,94.20
2019-03-21T22:36:56.763Z,94.40
2019-03-21T22:39:27.249Z,94.70
2019-03-21T22:41:57.742Z,94.70
2019-03-21T22:44:28.201Z,94.90
2019-03-21T22:46:58.699Z,94.90
2019-03-21T22:49:29.281Z,95.10
2019-03-21T22:51:59.747Z,95.30
2019-03-21T22:54:30.604Z,95.40
2019-03-21T22:57:02.140Z,95.30
2019-03-21T22:59:32.623Z,95.30
2019-03-21T23:02:03.596Z,95.30
2019-03-21T23:04:34.167Z,95.30
2019-03-21T23:07:04.701Z,95.60
2019-03-21T23:09:35.209Z,95.90
2019-03-21T23:12:06.009Z,96.00
2019-03-21T23:14:36.506Z,96.00
2019-03-21T23:17:07.039Z,96.10
2019-03-21T23:19:37.549Z,96.00
2019-03-21T23:22:09.187Z,95.90
2019-03-21T23:24:42.007Z,95.90
2019-03-21T23:27:12.457Z,96.40
2019-03-21T23:29:42.956Z,97.10
2019-03-21T23:32:13.423Z,97.30
2019-03-21T23:34:45.246Z,97.00
2019-03-21T23:37:15.710Z,96.90
2019-03-21T23:39:46.215Z,96.20
2019-03-21T23:42:16.755Z,96.20
2019-03-21T23:44:50.455Z,95.90
2019-03-21T23:47:20.941Z,95.70
2019-03-21T23:49:51.501Z,95.50
2019-03-21T23:52:21.995Z,95.70
2019-03-21T23:54:52.483Z,96.00
2019-03-21T23:57:23.094Z,96.20
2019-03-21T23:59:53.592Z,95.90
